sensor_id;sensor_type;location;lat;lon;timestamp;P1;durP1;ratioP1;P2;durP2;ratioP2
6388;SDS011;3227;42.654;23.360;2024-02-23T00:00:21;17.30;;;8.77;;
6388;SDS011;3227;42.654;23.360;2024-02-23T00:02:49;15.60;;;8.57;;
6388;SDS011;3227;42.654;23.360;2024-02-23T00:05:16;16.30;;;9.30;;
6388;SDS011;3227;42.654;23.360;2024-02-23T00:07:44;17.53;;;9.43;;
6388;SDS011;3227;42.654;23.360;2024-02-23T00:10:10;19.77;;;9.47;;
6388;SDS011;3227;42.654;23.360;2024-02-23T00:12:37;17.10;;;9.40;;
6388;SDS011;3227;42.654;23.360;2024-02-23T00:15:04;16.17;;;8.83;;
6388;SDS011;3227;42.654;23.360;2024-02-23T00:17:32;15.60;;;8.80;;
6388;SDS011;3227;42.654;23.360;2024-02-23T00:20:00;14.83;;;8.57;;
6388;SDS011;3227;42.654;23.360;2024-02-23T00:22:27;16.47;;;9.00;;
6388;SDS011;3227;42.654;23.360;2024-02-23T00:24:54;14.47;;;8.57;;
6388;SDS011;3227;42.654;23.360;2024-02-23T00:27:20;15.13;;;8.60;;
6388;SDS011;3227;42.654;23.360;2024-02-23T00:29:47;16.63;;;8.23;;
6388;SDS011;3227;42.654;23.360;2024-02-23T00:32:14;15.27;;;8.27;;
6388;SDS011;3227;42.654;23.360;2024-02-23T00:34:40;15.87;;;8.17;;
6388;SDS011;3227;42.654;23.360;2024-02-23T00:37:08;15.87;;;8.27;;
6388;SDS011;3227;42.654;23.360;2024-02-23T00:39:35;16.07;;;8.73;;
6388;SDS011;3227;42.654;23.360;2024-02-23T00:42:02;15.00;;;8.57;;
6388;SDS011;3227;42.654;23.360;2024-02-23T00:44:29;16.80;;;8.77;;
6388;SDS011;3227;42.654;23.360;2024-02-23T00:46:56;13.10;;;7.60;;
6388;SDS011;3227;42.654;23.360;2024-02-23T00:49:26;13.93;;;7.93;;
6388;SDS011;3227;42.654;23.360;2024-02-23T00:51:53;13.67;;;7.60;;
6388;SDS011;3227;42.654;23.360;2024-02-23T00:54:21;11.53;;;6.60;;
6388;SDS011;3227;42.654;23.360;2024-02-23T00:56:48;16.80;;;8.03;;
6388;SDS011;3227;42.654;23.360;2024-02-23T00:59:15;15.33;;;8.10;;
6388;SDS011;3227;42.654;23.360;2024-02-23T01:01:42;12.70;;;7.63;;
6388;SDS011;3227;42.654;23.360;2024-02-23T01:04:08;13.23;;;7.13;;
6388;SDS011;3227;42.654;23.360;2024-02-23T01:06:35;14.53;;;7.50;;
6388;SDS011;3227;42.654;23.360;2024-02-23T01:09:02;12.40;;;7.17;;
6388;SDS011;3227;42.654;23.360;2024-02-23T01:11:30;12.93;;;7.33;;
6388;SDS011;3227;42.654;23.360;2024-02-23T01:13:57;12.50;;;6.93;;
6388;SDS011;3227;42.654;23.360;2024-02-23T01:16:24;12.77;;;7.03;;
6388;SDS011;3227;42.654;23.360;2024-02-23T01:18:51;11.83;;;6.83;;
6388;SDS011;3227;42.654;23.360;2024-02-23T01:21:18;11.03;;;5.80;;
6388;SDS011;3227;42.654;23.360;2024-02-23T01:23:44;11.03;;;6.43;;
6388;SDS011;3227;42.654;23.360;2024-02-23T01:26:11;13.10;;;7.33;;
6388;SDS011;3227;42.654;23.360;2024-02-23T01:28:39;9.93;;;6.23;;
6388;SDS011;3227;42.654;23.360;2024-02-23T01:31:08;11.70;;;7.03;;
6388;SDS011;3227;42.654;23.360;2024-02-23T01:33:35;11.43;;;6.27;;
6388;SDS011;3227;42.654;23.360;2024-02-23T01:36:03;14.50;;;6.53;;
6388;SDS011;3227;42.654;23.360;2024-02-23T01:38:30;11.23;;;6.40;;
6388;SDS011;3227;42.654;23.360;2024-02-23T01:40:57;11.20;;;6.43;;
6388;SDS011;3227;42.654;23.360;2024-02-23T01:43:24;10.97;;;6.40;;
6388;SDS011;3227;42.654;23.360;2024-02-23T01:45:52;10.53;;;6.60;;
6388;SDS011;3227;42.654;23.360;2024-02-23T01:48:20;14.27;;;6.30;;
6388;SDS011;3227;42.654;23.360;2024-02-23T01:50:47;9.47;;;5.77;;
6388;SDS011;3227;42.654;23.360;2024-02-23T01:53:13;11.70;;;5.90;;
6388;SDS011;3227;42.654;23.360;2024-02-23T01:55:40;11.00;;;5.80;;
6388;SDS011;3227;42.654;23.360;2024-02-23T01:58:08;9.73;;;5.80;;
6388;SDS011;3227;42.654;23.360;2024-02-23T02:00:37;10.63;;;5.77;;
6388;SDS011;3227;42.654;23.360;2024-02-23T02:03:07;9.27;;;5.70;;
6388;SDS011;3227;42.654;23.360;2024-02-23T02:05:35;12.03;;;6.43;;
6388;SDS011;3227;42.654;23.360;2024-02-23T02:08:02;10.53;;;6.10;;
6388;SDS011;3227;42.654;23.360;2024-02-23T02:10:29;11.77;;;6.30;;
6388;SDS011;3227;42.654;23.360;2024-02-23T02:13:01;10.80;;;5.90;;
6388;SDS011;3227;42.654;23.360;2024-02-23T02:15:28;15.00;;;6.33;;
6388;SDS011;3227;42.654;23.360;2024-02-23T02:17:55;11.77;;;6.40;;
6388;SDS011;3227;42.654;23.360;2024-02-23T02:20:24;11.37;;;5.87;;
6388;SDS011;3227;42.654;23.360;2024-02-23T02:22:51;12.30;;;5.93;;
6388;SDS011;3227;42.654;23.360;2024-02-23T02:25:18;9.63;;;5.93;;
6388;SDS011;3227;42.654;23.360;2024-02-23T02:27:45;10.23;;;5.63;;
6388;SDS011;3227;42.654;23.360;2024-02-23T02:30:12;12.37;;;6.57;;
6388;SDS011;3227;42.654;23.360;2024-02-23T02:32:39;11.47;;;6.60;;
6388;SDS011;3227;42.654;23.360;2024-02-23T02:35:06;12.00;;;6.17;;
6388;SDS011;3227;42.654;23.360;2024-02-23T02:37:35;11.50;;;7.17;;
6388;SDS011;3227;42.654;23.360;2024-02-23T02:40:02;11.93;;;6.37;;
6388;SDS011;3227;42.654;23.360;2024-02-23T02:42:29;12.03;;;6.20;;
6388;SDS011;3227;42.654;23.360;2024-02-23T02:44:56;12.40;;;6.07;;
6388;SDS011;3227;42.654;23.360;2024-02-23T02:47:23;11.47;;;6.00;;
6388;SDS011;3227;42.654;23.360;2024-02-23T02:49:50;12.57;;;6.60;;
6388;SDS011;3227;42.654;23.360;2024-02-23T02:52:16;11.23;;;6.30;;
6388;SDS011;3227;42.654;23.360;2024-02-23T02:54:45;17.23;;;6.70;;
6388;SDS011;3227;42.654;23.360;2024-02-23T02:57:13;11.13;;;6.33;;
6388;SDS011;3227;42.654;23.360;2024-02-23T02:59:40;10.07;;;5.93;;
6388;SDS011;3227;42.654;23.360;2024-02-23T03:02:07;11.33;;;6.17;;
6388;SDS011;3227;42.654;23.360;2024-02-23T03:04:34;11.67;;;6.30;;
6388;SDS011;3227;42.654;23.360;2024-02-23T03:07:00;10.33;;;6.07;;
6388;SDS011;3227;42.654;23.360;2024-02-23T03:09:27;10.83;;;6.17;;
6388;SDS011;3227;42.654;23.360;2024-02-23T03:11:55;11.17;;;6.20;;
6388;SDS011;3227;42.654;23.360;2024-02-23T03:14:22;12.23;;;6.90;;
6388;SDS011;3227;42.654;23.360;2024-02-23T03:16:49;11.43;;;6.20;;
6388;SDS011;3227;42.654;23.360;2024-02-23T03:19:15;12.60;;;6.27;;
6388;SDS011;3227;42.654;23.360;2024-02-23T03:21:47;9.83;;;6.10;;
6388;SDS011;3227;42.654;23.360;2024-02-23T03:24:14;12.10;;;6.63;;
6388;SDS011;3227;42.654;23.360;2024-02-23T03:26:40;13.30;;;6.57;;
6388;SDS011;3227;42.654;23.360;2024-02-23T03:29:08;11.70;;;6.80;;
6388;SDS011;3227;42.654;23.360;2024-02-23T03:31:35;10.70;;;6.30;;
6388;SDS011;3227;42.654;23.360;2024-02-23T03:34:02;14.17;;;6.57;;
6388;SDS011;3227;42.654;23.360;2024-02-23T03:36:29;13.33;;;6.27;;
6388;SDS011;3227;42.654;23.360;2024-02-23T03:38:55;11.17;;;6.20;;
6388;SDS011;3227;42.654;23.360;2024-02-23T03:41:22;11.13;;;6.80;;
6388;SDS011;3227;42.654;23.360;2024-02-23T03:43:49;12.47;;;6.23;;
6388;SDS011;3227;42.654;23.360;2024-02-23T03:46:17;10.67;;;6.33;;
6388;SDS011;3227;42.654;23.360;2024-02-23T03:48:44;10.37;;;6.00;;
6388;SDS011;3227;42.654;23.360;2024-02-23T03:51:11;11.07;;;6.33;;
6388;SDS011;3227;42.654;23.360;2024-02-23T03:53:38;11.60;;;6.43;;
6388;SDS011;3227;42.654;23.360;2024-02-23T03:56:05;11.80;;;6.40;;
6388;SDS011;3227;42.654;23.360;2024-02-23T03:58:32;12.17;;;7.00;;
6388;SDS011;3227;42.654;23.360;2024-02-23T04:00:59;10.70;;;6.10;;
6388;SDS011;3227;42.654;23.360;2024-02-23T04:03:32;11.27;;;6.37;;
6388;SDS011;3227;42.654;23.360;2024-02-23T04:05:58;12.33;;;6.53;;
6388;SDS011;3227;42.654;23.360;2024-02-23T04:08:25;10.53;;;5.97;;
6388;SDS011;3227;42.654;23.360;2024-02-23T04:10:52;13.73;;;6.47;;
6388;SDS011;3227;42.654;23.360;2024-02-23T04:13:34;11.03;;;6.37;;
6388;SDS011;3227;42.654;23.360;2024-02-23T04:16:01;11.90;;;6.47;;
6388;SDS011;3227;42.654;23.360;2024-02-23T04:18:28;14.93;;;6.80;;
6388;SDS011;3227;42.654;23.360;2024-02-23T04:20:56;10.60;;;6.13;;
6388;SDS011;3227;42.654;23.360;2024-02-23T04:23:22;11.87;;;6.90;;
6388;SDS011;3227;42.654;23.360;2024-02-23T04:25:49;11.57;;;6.03;;
6388;SDS011;3227;42.654;23.360;2024-02-23T04:28:17;12.17;;;6.63;;
6388;SDS011;3227;42.654;23.360;2024-02-23T04:30:43;11.33;;;6.97;;
6388;SDS011;3227;42.654;23.360;2024-02-23T04:33:12;14.27;;;6.77;;
6388;SDS011;3227;42.654;23.360;2024-02-23T04:35:39;10.70;;;6.23;;
6388;SDS011;3227;42.654;23.360;2024-02-23T04:38:07;10.40;;;6.43;;
6388;SDS011;3227;42.654;23.360;2024-02-23T04:40:34;11.77;;;7.07;;
6388;SDS011;3227;42.654;23.360;2024-02-23T04:43:00;10.83;;;6.53;;
6388;SDS011;3227;42.654;23.360;2024-02-23T04:45:27;10.93;;;6.73;;
6388;SDS011;3227;42.654;23.360;2024-02-23T04:47:54;10.73;;;6.80;;
6388;SDS011;3227;42.654;23.360;2024-02-23T04:50:21;14.17;;;7.57;;
6388;SDS011;3227;42.654;23.360;2024-02-23T04:52:48;12.60;;;6.43;;
6388;SDS011;3227;42.654;23.360;2024-02-23T04:55:16;11.93;;;7.20;;
6388;SDS011;3227;42.654;23.360;2024-02-23T04:57:43;11.07;;;6.37;;
6388;SDS011;3227;42.654;23.360;2024-02-23T05:00:10;11.83;;;6.90;;
6388;SDS011;3227;42.654;23.360;2024-02-23T05:02:38;12.70;;;6.97;;
6388;SDS011;3227;42.654;23.360;2024-02-23T05:05:05;11.23;;;5.80;;
6388;SDS011;3227;42.654;23.360;2024-02-23T05:07:32;10.03;;;6.33;;
6388;SDS011;3227;42.654;23.360;2024-02-23T05:09:59;13.93;;;6.70;;
6388;SDS011;3227;42.654;23.360;2024-02-23T05:12:28;11.50;;;6.93;;
6388;SDS011;3227;42.654;23.360;2024-02-23T05:14:55;13.67;;;6.97;;
6388;SDS011;3227;42.654;23.360;2024-02-23T05:17:21;12.30;;;7.13;;
6388;SDS011;3227;42.654;23.360;2024-02-23T05:19:48;11.00;;;6.47;;
6388;SDS011;3227;42.654;23.360;2024-02-23T05:22:15;13.30;;;6.57;;
6388;SDS011;3227;42.654;23.360;2024-02-23T05:24:42;13.10;;;7.10;;
6388;SDS011;3227;42.654;23.360;2024-02-23T05:27:10;13.20;;;7.60;;
6388;SDS011;3227;42.654;23.360;2024-02-23T05:29:38;11.57;;;6.67;;
6388;SDS011;3227;42.654;23.360;2024-02-23T05:32:05;11.77;;;6.60;;
6388;SDS011;3227;42.654;23.360;2024-02-23T05:34:32;14.03;;;7.23;;
6388;SDS011;3227;42.654;23.360;2024-02-23T05:37:00;11.67;;;7.07;;
6388;SDS011;3227;42.654;23.360;2024-02-23T05:39:26;12.47;;;7.23;;
6388;SDS011;3227;42.654;23.360;2024-02-23T05:41:54;13.47;;;7.10;;
6388;SDS011;3227;42.654;23.360;2024-02-23T05:44:22;13.57;;;7.47;;
6388;SDS011;3227;42.654;23.360;2024-02-23T05:46:50;14.40;;;7.90;;
6388;SDS011;3227;42.654;23.360;2024-02-23T05:49:17;14.07;;;7.50;;
6388;SDS011;3227;42.654;23.360;2024-02-23T05:51:43;13.00;;;6.87;;
6388;SDS011;3227;42.654;23.360;2024-02-23T05:54:10;15.07;;;7.63;;
6388;SDS011;3227;42.654;23.360;2024-02-23T05:56:37;14.03;;;7.87;;
6388;SDS011;3227;42.654;23.360;2024-02-23T05:59:04;14.00;;;8.13;;
6388;SDS011;3227;42.654;23.360;2024-02-23T06:01:31;16.10;;;8.83;;
6388;SDS011;3227;42.654;23.360;2024-02-23T06:03:59;14.27;;;8.53;;
6388;SDS011;3227;42.654;23.360;2024-02-23T06:06:26;14.43;;;8.27;;
6388;SDS011;3227;42.654;23.360;2024-02-23T06:08:53;14.93;;;8.67;;
6388;SDS011;3227;42.654;23.360;2024-02-23T06:11:19;14.97;;;7.87;;
6388;SDS011;3227;42.654;23.360;2024-02-23T06:13:46;13.37;;;7.90;;
6388;SDS011;3227;42.654;23.360;2024-02-23T06:16:13;15.93;;;8.10;;
6388;SDS011;3227;42.654;23.360;2024-02-23T06:18:41;18.43;;;8.30;;
6388;SDS011;3227;42.654;23.360;2024-02-23T06:21:13;15.40;;;8.17;;
6388;SDS011;3227;42.654;23.360;2024-02-23T06:23:50;19.57;;;8.20;;
6388;SDS011;3227;42.654;23.360;2024-02-23T06:26:16;17.23;;;8.83;;
6388;SDS011;3227;42.654;23.360;2024-02-23T06:28:43;14.87;;;8.57;;
6388;SDS011;3227;42.654;23.360;2024-02-23T06:31:10;11.93;;;7.70;;
6388;SDS011;3227;42.654;23.360;2024-02-23T06:33:37;17.67;;;8.70;;
6388;SDS011;3227;42.654;23.360;2024-02-23T06:36:04;13.33;;;8.23;;
6388;SDS011;3227;42.654;23.360;2024-02-23T06:38:32;19.60;;;8.30;;
6388;SDS011;3227;42.654;23.360;2024-02-23T06:40:59;13.57;;;7.83;;
6388;SDS011;3227;42.654;23.360;2024-02-23T06:43:25;16.13;;;8.07;;
6388;SDS011;3227;42.654;23.360;2024-02-23T06:45:52;14.67;;;8.27;;
6388;SDS011;3227;42.654;23.360;2024-02-23T06:48:19;14.30;;;7.97;;
6388;SDS011;3227;42.654;23.360;2024-02-23T06:50:46;13.43;;;6.93;;
6388;SDS011;3227;42.654;23.360;2024-02-23T06:53:13;13.77;;;7.90;;
6388;SDS011;3227;42.654;23.360;2024-02-23T06:55:41;14.93;;;8.07;;
6388;SDS011;3227;42.654;23.360;2024-02-23T06:58:08;14.40;;;8.37;;
6388;SDS011;3227;42.654;23.360;2024-02-23T07:00:35;14.00;;;8.10;;
6388;SDS011;3227;42.654;23.360;2024-02-23T07:03:02;18.03;;;8.83;;
6388;SDS011;3227;42.654;23.360;2024-02-23T07:05:29;15.20;;;9.13;;
6388;SDS011;3227;42.654;23.360;2024-02-23T07:07:56;15.67;;;8.03;;
6388;SDS011;3227;42.654;23.360;2024-02-23T07:10:22;15.40;;;8.03;;
6388;SDS011;3227;42.654;23.360;2024-02-23T07:12:51;17.03;;;8.17;;
6388;SDS011;3227;42.654;23.360;2024-02-23T07:15:21;15.10;;;7.70;;
6388;SDS011;3227;42.654;23.360;2024-02-23T07:17:47;13.67;;;8.03;;
6388;SDS011;3227;42.654;23.360;2024-02-23T07:20:14;15.67;;;8.30;;
6388;SDS011;3227;42.654;23.360;2024-02-23T07:22:43;13.90;;;8.37;;
6388;SDS011;3227;42.654;23.360;2024-02-23T07:25:10;15.27;;;8.67;;
6388;SDS011;3227;42.654;23.360;2024-02-23T07:27:37;16.25;;;9.85;;
6388;SDS011;3227;42.654;23.360;2024-02-23T07:30:08;14.90;;;8.73;;
6388;SDS011;3227;42.654;23.360;2024-02-23T07:32:36;14.27;;;8.73;;
6388;SDS011;3227;42.654;23.360;2024-02-23T07:35:03;16.80;;;9.88;;
6388;SDS011;3227;42.654;23.360;2024-02-23T07:37:30;17.67;;;9.80;;
6388;SDS011;3227;42.654;23.360;2024-02-23T07:39:57;18.00;;;9.90;;
6388;SDS011;3227;42.654;23.360;2024-02-23T07:42:24;15.30;;;8.50;;
6388;SDS011;3227;42.654;23.360;2024-02-23T07:44:50;14.77;;;8.87;;
6388;SDS011;3227;42.654;23.360;2024-02-23T07:47:19;18.17;;;8.57;;
6388;SDS011;3227;42.654;23.360;2024-02-23T07:49:45;13.63;;;8.10;;
6388;SDS011;3227;42.654;23.360;2024-02-23T07:52:12;14.20;;;8.13;;
6388;SDS011;3227;42.654;23.360;2024-02-23T07:54:54;16.17;;;8.73;;
6388;SDS011;3227;42.654;23.360;2024-02-23T07:57:21;19.70;;;8.37;;
6388;SDS011;3227;42.654;23.360;2024-02-23T07:59:48;14.60;;;8.33;;
6388;SDS011;3227;42.654;23.360;2024-02-23T08:02:14;14.30;;;7.50;;
6388;SDS011;3227;42.654;23.360;2024-02-23T08:04:43;14.87;;;8.13;;
6388;SDS011;3227;42.654;23.360;2024-02-23T08:07:10;13.13;;;7.77;;
6388;SDS011;3227;42.654;23.360;2024-02-23T08:09:36;13.10;;;7.00;;
6388;SDS011;3227;42.654;23.360;2024-02-23T08:12:03;14.87;;;7.27;;
6388;SDS011;3227;42.654;23.360;2024-02-23T08:14:41;12.87;;;7.27;;
6388;SDS011;3227;42.654;23.360;2024-02-23T08:17:09;13.63;;;7.63;;
6388;SDS011;3227;42.654;23.360;2024-02-23T08:19:36;15.17;;;7.73;;
6388;SDS011;3227;42.654;23.360;2024-02-23T08:22:04;14.97;;;8.07;;
6388;SDS011;3227;42.654;23.360;2024-02-23T08:24:31;16.23;;;8.52;;
6388;SDS011;3227;42.654;23.360;2024-02-23T08:26:58;14.18;;;8.65;;
6388;SDS011;3227;42.654;23.360;2024-02-23T08:29:25;14.00;;;8.33;;
6388;SDS011;3227;42.654;23.360;2024-02-23T08:31:52;13.50;;;7.77;;
6388;SDS011;3227;42.654;23.360;2024-02-23T08:34:18;16.27;;;8.13;;
6388;SDS011;3227;42.654;23.360;2024-02-23T08:36:45;14.50;;;7.57;;
6388;SDS011;3227;42.654;23.360;2024-02-23T08:39:13;13.50;;;7.23;;
6388;SDS011;3227;42.654;23.360;2024-02-23T08:41:40;17.27;;;7.47;;
6388;SDS011;3227;42.654;23.360;2024-02-23T08:44:07;13.87;;;7.57;;
6388;SDS011;3227;42.654;23.360;2024-02-23T08:46:33;13.20;;;7.27;;
6388;SDS011;3227;42.654;23.360;2024-02-23T08:49:00;17.08;;;8.40;;
6388;SDS011;3227;42.654;23.360;2024-02-23T08:51:27;24.40;;;8.27;;
6388;SDS011;3227;42.654;23.360;2024-02-23T08:53:54;19.00;;;7.60;;
6388;SDS011;3227;42.654;23.360;2024-02-23T08:56:23;14.10;;;8.43;;
6388;SDS011;3227;42.654;23.360;2024-02-23T08:58:50;13.43;;;7.07;;
6388;SDS011;3227;42.654;23.360;2024-02-23T09:01:17;13.98;;;7.85;;
6388;SDS011;3227;42.654;23.360;2024-02-23T09:03:44;12.40;;;6.33;;
6388;SDS011;3227;42.654;23.360;2024-02-23T09:06:11;12.00;;;6.67;;
6388;SDS011;3227;42.654;23.360;2024-02-23T09:08:37;12.83;;;7.13;;
6388;SDS011;3227;42.654;23.360;2024-02-23T09:11:06;15.35;;;7.20;;
6388;SDS011;3227;42.654;23.360;2024-02-23T09:13:49;12.47;;;6.60;;
6388;SDS011;3227;42.654;23.360;2024-02-23T09:16:15;12.40;;;7.30;;
6388;SDS011;3227;42.654;23.360;2024-02-23T09:18:44;12.77;;;7.70;;
6388;SDS011;3227;42.654;23.360;2024-02-23T09:21:10;11.77;;;6.80;;
6388;SDS011;3227;42.654;23.360;2024-02-23T09:23:37;12.80;;;6.67;;
6388;SDS011;3227;42.654;23.360;2024-02-23T09:26:08;10.17;;;5.73;;
6388;SDS011;3227;42.654;23.360;2024-02-23T09:28:35;10.30;;;5.90;;
6388;SDS011;3227;42.654;23.360;2024-02-23T09:31:03;10.00;;;6.07;;
6388;SDS011;3227;42.654;23.360;2024-02-23T09:33:31;12.13;;;6.80;;
6388;SDS011;3227;42.654;23.360;2024-02-23T09:35:57;10.23;;;6.18;;
6388;SDS011;3227;42.654;23.360;2024-02-23T09:38:24;9.47;;;5.27;;
6388;SDS011;3227;42.654;23.360;2024-02-23T09:40:51;11.63;;;5.60;;
6388;SDS011;3227;42.654;23.360;2024-02-23T09:43:17;9.87;;;4.40;;
6388;SDS011;3227;42.654;23.360;2024-02-23T09:45:47;11.83;;;4.30;;
6388;SDS011;3227;42.654;23.360;2024-02-23T09:48:18;9.13;;;4.40;;
6388;SDS011;3227;42.654;23.360;2024-02-23T09:50:47;7.23;;;4.10;;
6388;SDS011;3227;42.654;23.360;2024-02-23T09:53:14;8.97;;;3.80;;
6388;SDS011;3227;42.654;23.360;2024-02-23T09:55:41;9.10;;;4.83;;
6388;SDS011;3227;42.654;23.360;2024-02-23T09:58:10;7.50;;;4.40;;
6388;SDS011;3227;42.654;23.360;2024-02-23T10:00:39;8.43;;;4.30;;
6388;SDS011;3227;42.654;23.360;2024-02-23T10:03:06;8.20;;;4.00;;
6388;SDS011;3227;42.654;23.360;2024-02-23T10:05:34;9.03;;;4.90;;
6388;SDS011;3227;42.654;23.360;2024-02-23T10:08:01;7.50;;;4.17;;
6388;SDS011;3227;42.654;23.360;2024-02-23T10:10:29;7.20;;;3.80;;
6388;SDS011;3227;42.654;23.360;2024-02-23T10:12:56;6.27;;;3.33;;
6388;SDS011;3227;42.654;23.360;2024-02-23T10:15:23;8.87;;;4.03;;
6388;SDS011;3227;42.654;23.360;2024-02-23T10:17:50;4.30;;;2.60;;
6388;SDS011;3227;42.654;23.360;2024-02-23T10:20:19;7.75;;;3.00;;
6388;SDS011;3227;42.654;23.360;2024-02-23T10:22:47;6.40;;;3.50;;
6388;SDS011;3227;42.654;23.360;2024-02-23T10:25:14;7.25;;;3.22;;
6388;SDS011;3227;42.654;23.360;2024-02-23T10:27:41;6.53;;;3.25;;
6388;SDS011;3227;42.654;23.360;2024-02-23T10:30:08;6.67;;;3.27;;
6388;SDS011;3227;42.654;23.360;2024-02-23T10:32:37;6.43;;;3.07;;
6388;SDS011;3227;42.654;23.360;2024-02-23T10:35:04;5.77;;;2.90;;
6388;SDS011;3227;42.654;23.360;2024-02-23T10:37:36;6.17;;;3.20;;
6388;SDS011;3227;42.654;23.360;2024-02-23T10:40:05;6.30;;;3.28;;
6388;SDS011;3227;42.654;23.360;2024-02-23T10:42:37;6.80;;;2.87;;
6388;SDS011;3227;42.654;23.360;2024-02-23T10:45:06;8.50;;;2.50;;
6388;SDS011;3227;42.654;23.360;2024-02-23T10:47:33;4.63;;;2.47;;
6388;SDS011;3227;42.654;23.360;2024-02-23T10:50:02;5.03;;;2.20;;
6388;SDS011;3227;42.654;23.360;2024-02-23T10:52:30;3.53;;;2.10;;
6388;SDS011;3227;42.654;23.360;2024-02-23T10:54:58;3.97;;;2.37;;
6388;SDS011;3227;42.654;23.360;2024-02-23T10:57:30;5.97;;;2.73;;
6388;SDS011;3227;42.654;23.360;2024-02-23T10:59:58;5.43;;;2.90;;
6388;SDS011;3227;42.654;23.360;2024-02-23T11:02:26;4.83;;;2.63;;
6388;SDS011;3227;42.654;23.360;2024-02-23T11:04:55;8.63;;;2.60;;
6388;SDS011;3227;42.654;23.360;2024-02-23T11:07:24;4.33;;;2.37;;
6388;SDS011;3227;42.654;23.360;2024-02-23T11:09:53;4.30;;;2.33;;
6388;SDS011;3227;42.654;23.360;2024-02-23T11:12:23;4.03;;;2.20;;
6388;SDS011;3227;42.654;23.360;2024-02-23T11:14:56;3.87;;;2.20;;
6388;SDS011;3227;42.654;23.360;2024-02-23T11:17:25;5.00;;;2.50;;
6388;SDS011;3227;42.654;23.360;2024-02-23T11:19:54;6.73;;;2.40;;
6388;SDS011;3227;42.654;23.360;2024-02-23T11:22:24;4.20;;;2.30;;
6388;SDS011;3227;42.654;23.360;2024-02-23T11:24:52;4.55;;;2.20;;
6388;SDS011;3227;42.654;23.360;2024-02-23T11:27:23;5.00;;;2.40;;
6388;SDS011;3227;42.654;23.360;2024-02-23T11:29:59;6.20;;;2.40;;
6388;SDS011;3227;42.654;23.360;2024-02-23T11:32:35;5.30;;;2.40;;
6388;SDS011;3227;42.654;23.360;2024-02-23T11:35:05;5.30;;;2.27;;
6388;SDS011;3227;42.654;23.360;2024-02-23T11:37:32;6.47;;;3.03;;
6388;SDS011;3227;42.654;23.360;2024-02-23T11:40:10;5.40;;;2.93;;
6388;SDS011;3227;42.654;23.360;2024-02-23T11:42:38;5.17;;;2.73;;
6388;SDS011;3227;42.654;23.360;2024-02-23T11:45:09;5.63;;;2.75;;
6388;SDS011;3227;42.654;23.360;2024-02-23T11:47:36;6.47;;;2.80;;
6388;SDS011;3227;42.654;23.360;2024-02-23T11:50:04;4.73;;;2.47;;
6388;SDS011;3227;42.654;23.360;2024-02-23T11:52:32;5.97;;;2.55;;
6388;SDS011;3227;42.654;23.360;2024-02-23T11:54:59;5.50;;;2.60;;
6388;SDS011;3227;42.654;23.360;2024-02-23T11:57:26;4.30;;;2.20;;
6388;SDS011;3227;42.654;23.360;2024-02-23T11:59:53;5.43;;;2.27;;
6388;SDS011;3227;42.654;23.360;2024-02-23T12:02:23;4.90;;;2.63;;
6388;SDS011;3227;42.654;23.360;2024-02-23T12:04:50;6.43;;;2.70;;
6388;SDS011;3227;42.654;23.360;2024-02-23T12:07:16;4.90;;;2.50;;
6388;SDS011;3227;42.654;23.360;2024-02-23T12:09:46;5.77;;;2.60;;
6388;SDS011;3227;42.654;23.360;2024-02-23T12:12:13;4.20;;;2.30;;
6388;SDS011;3227;42.654;23.360;2024-02-23T12:14:40;4.63;;;2.60;;
6388;SDS011;3227;42.654;23.360;2024-02-23T12:17:07;4.40;;;2.37;;
6388;SDS011;3227;42.654;23.360;2024-02-23T12:19:38;4.50;;;2.30;;
6388;SDS011;3227;42.654;23.360;2024-02-23T12:22:06;3.90;;;2.20;;
6388;SDS011;3227;42.654;23.360;2024-02-23T12:24:33;5.87;;;2.77;;
6388;SDS011;3227;42.654;23.360;2024-02-23T12:27:00;3.60;;;2.27;;
6388;SDS011;3227;42.654;23.360;2024-02-23T12:29:27;7.40;;;2.40;;
6388;SDS011;3227;42.654;23.360;2024-02-23T12:32:02;4.30;;;2.27;;
6388;SDS011;3227;42.654;23.360;2024-02-23T12:34:30;5.47;;;2.47;;
6388;SDS011;3227;42.654;23.360;2024-02-23T12:36:58;5.17;;;2.20;;
6388;SDS011;3227;42.654;23.360;2024-02-23T12:39:25;3.10;;;2.03;;
6388;SDS011;3227;42.654;23.360;2024-02-23T12:41:52;4.83;;;2.13;;
6388;SDS011;3227;42.654;23.360;2024-02-23T12:44:22;3.43;;;2.03;;
6388;SDS011;3227;42.654;23.360;2024-02-23T12:46:48;4.43;;;2.30;;
6388;SDS011;3227;42.654;23.360;2024-02-23T12:49:15;3.87;;;2.30;;
6388;SDS011;3227;42.654;23.360;2024-02-23T12:51:42;5.20;;;2.53;;
6388;SDS011;3227;42.654;23.360;2024-02-23T12:54:11;4.27;;;2.33;;
6388;SDS011;3227;42.654;23.360;2024-02-23T12:56:38;4.33;;;2.33;;
6388;SDS011;3227;42.654;23.360;2024-02-23T12:59:05;3.23;;;2.10;;
6388;SDS011;3227;42.654;23.360;2024-02-23T13:01:32;5.10;;;2.00;;
6388;SDS011;3227;42.654;23.360;2024-02-23T13:04:07;2.17;;;1.83;;
6388;SDS011;3227;42.654;23.360;2024-02-23T13:06:36;4.57;;;2.57;;
6388;SDS011;3227;42.654;23.360;2024-02-23T13:09:03;3.20;;;2.03;;
6388;SDS011;3227;42.654;23.360;2024-02-23T13:11:31;3.93;;;2.07;;
6388;SDS011;3227;42.654;23.360;2024-02-23T13:13:58;3.90;;;2.20;;
6388;SDS011;3227;42.654;23.360;2024-02-23T13:16:25;2.77;;;1.97;;
6388;SDS011;3227;42.654;23.360;2024-02-23T13:18:52;4.00;;;2.43;;
6388;SDS011;3227;42.654;23.360;2024-02-23T13:21:18;4.20;;;2.20;;
6388;SDS011;3227;42.654;23.360;2024-02-23T13:23:45;2.67;;;1.87;;
6388;SDS011;3227;42.654;23.360;2024-02-23T13:26:12;3.27;;;2.10;;
6388;SDS011;3227;42.654;23.360;2024-02-23T13:28:41;3.37;;;2.07;;
6388;SDS011;3227;42.654;23.360;2024-02-23T13:31:08;5.60;;;2.33;;
6388;SDS011;3227;42.654;23.360;2024-02-23T13:33:35;4.67;;;2.40;;
6388;SDS011;3227;42.654;23.360;2024-02-23T13:36:01;5.07;;;2.40;;
6388;SDS011;3227;42.654;23.360;2024-02-23T13:38:28;2.87;;;1.90;;
6388;SDS011;3227;42.654;23.360;2024-02-23T13:40:55;5.13;;;2.10;;
6388;SDS011;3227;42.654;23.360;2024-02-23T13:43:22;5.60;;;2.30;;
6388;SDS011;3227;42.654;23.360;2024-02-23T13:45:50;4.23;;;2.27;;
6388;SDS011;3227;42.654;23.360;2024-02-23T13:48:18;3.97;;;2.27;;
6388;SDS011;3227;42.654;23.360;2024-02-23T13:50:46;4.33;;;2.30;;
6388;SDS011;3227;42.654;23.360;2024-02-23T13:53:13;3.37;;;2.07;;
6388;SDS011;3227;42.654;23.360;2024-02-23T13:55:39;3.33;;;2.10;;
6388;SDS011;3227;42.654;23.360;2024-02-23T13:58:07;4.33;;;2.20;;
6388;SDS011;3227;42.654;23.360;2024-02-23T14:00:34;3.70;;;2.20;;
6388;SDS011;3227;42.654;23.360;2024-02-23T14:03:02;5.57;;;2.13;;
6388;SDS011;3227;42.654;23.360;2024-02-23T14:05:29;3.87;;;2.20;;
6388;SDS011;3227;42.654;23.360;2024-02-23T14:07:56;2.57;;;1.83;;
6388;SDS011;3227;42.654;23.360;2024-02-23T14:10:23;3.13;;;2.10;;
6388;SDS011;3227;42.654;23.360;2024-02-23T14:12:50;4.33;;;2.20;;
6388;SDS011;3227;42.654;23.360;2024-02-23T14:15:16;4.03;;;2.10;;
6388;SDS011;3227;42.654;23.360;2024-02-23T14:17:43;3.80;;;2.20;;
6388;SDS011;3227;42.654;23.360;2024-02-23T14:20:11;3.53;;;2.10;;
6388;SDS011;3227;42.654;23.360;2024-02-23T14:22:38;4.37;;;2.43;;
6388;SDS011;3227;42.654;23.360;2024-02-23T14:25:05;4.30;;;2.03;;
6388;SDS011;3227;42.654;23.360;2024-02-23T14:27:33;4.10;;;2.33;;
6388;SDS011;3227;42.654;23.360;2024-02-23T14:29:59;3.87;;;2.30;;
6388;SDS011;3227;42.654;23.360;2024-02-23T14:32:26;5.27;;;2.27;;
6388;SDS011;3227;42.654;23.360;2024-02-23T14:34:53;4.07;;;2.40;;
6388;SDS011;3227;42.654;23.360;2024-02-23T14:37:21;4.60;;;2.20;;
6388;SDS011;3227;42.654;23.360;2024-02-23T14:39:48;4.30;;;2.20;;
6388;SDS011;3227;42.654;23.360;2024-02-23T14:42:15;4.63;;;2.57;;
6388;SDS011;3227;42.654;23.360;2024-02-23T14:44:42;5.07;;;2.40;;
6388;SDS011;3227;42.654;23.360;2024-02-23T14:47:09;5.27;;;2.43;;
6388;SDS011;3227;42.654;23.360;2024-02-23T14:49:35;3.40;;;2.20;;
6388;SDS011;3227;42.654;23.360;2024-02-23T14:52:02;4.47;;;2.10;;
6388;SDS011;3227;42.654;23.360;2024-02-23T14:54:31;3.23;;;2.10;;